KHLG

Wheeling Ohio Co Airport

Wheeling, West Virginia, USA
KHLG 141730Z 1418/1518 17003KT P6SM BKN060 FM142100 12003KT P6SM VCSH OVC035 FM142300 11004KT 6SM -RA BR OVC030 FM150300 08005KT 3SM -RA BR OVC025 FM151000 05006KT 5SM -RA BR OVC020
Issued Valid From Valid To
Dec-14 @ 17:30 UTC
(5 hours ago)
Dec-14 @ 18:00 UTC
(5 hours ago)
Dec-15 @ 18:00 UTC
(in 19 hours)
Expired Click to View Dec-14 @ 18:00 to Dec-14 @ 21:00
KHLG 141730Z 1418/1518 17003KT P6SM BKN060
Wind Visibility Clouds
170° at 3 knots Greater than 6 miles
  • Broken at 6,000' AGL
From Dec-14 @ 21:00 to Dec-14 @ 23:00
FM142100 12003KT P6SM VCSH OVC035
Wind Visibility Clouds
120° at 3 knots Greater than 6 miles
  • Overcast at 3,500' AGL
From Dec-14 @ 23:00 to Dec-15 @ 03:00
FM142300 11004KT 6SM -RA BR OVC030
Wind Visibility Clouds Conditions
110° at 4 knots 6 miles
  • Overcast at 3,000' AGL
  • Light Rain
  • Mist
From Dec-15 @ 03:00 to Dec-15 @ 10:00
FM150300 08005KT 3SM -RA BR OVC025
Wind Visibility Clouds Conditions
80° at 5 knots 3 miles
  • Overcast at 2,500' AGL
  • Light Rain
  • Mist
From Dec-15 @ 10:00 to Dec-15 @ 18:00
FM151000 05006KT 5SM -RA BR OVC020
Wind Visibility Clouds Conditions
50° at 6 knots 5 miles
  • Overcast at 2,000' AGL
  • Light Rain
  • Mist
KHLG 141730Z 1418/1518 17003KT P6SM BKN060 FM142100 12003KT P6SM VCSH OVC035 FM142300 11004KT 6SM -RA BR OVC030 FM150300 08005KT 3SM -RA BR OVC025 FM151000 05006KT 5SM -RA BR OVC020
Issued Dec-14 @ 17:30 UTC
(5 hours ago)
Valid From Dec-14 @ 18:00 UTC
(5 hours ago)
Valid To Dec-15 @ 18:00 UTC
(in 19 hours)
Dec-14 @ 18:00 - Dec-14 @ 21:00
Wind Visibility
170° at 3 knots Greater than 6 miles
Clouds
  • Broken at 6,000' AGL
From Dec-14 @ 21:00 - Dec-14 @ 23:00
Wind Visibility
120° at 3 knots Greater than 6 miles
Clouds
  • Overcast at 3,500' AGL
From Dec-14 @ 23:00 - Dec-15 @ 03:00
Wind Visibility
110° at 4 knots 6 miles
Clouds
  • Overcast at 3,000' AGL
Conditions
  • Light Rain
  • Mist
From Dec-15 @ 03:00 - Dec-15 @ 10:00
Wind Visibility
80° at 5 knots 3 miles
Clouds
  • Overcast at 2,500' AGL
Conditions
  • Light Rain
  • Mist
From Dec-15 @ 10:00 - Dec-15 @ 18:00
Wind Visibility
50° at 6 knots 5 miles
Clouds
  • Overcast at 2,000' AGL
Conditions
  • Light Rain
  • Mist